sensor_id;sensor_type;location;lat;lon;timestamp;pressure;altitude;pressure_sealevel;temperature;humidity
11808;BME280;5961;42.640;23.380;2023-01-27T00:01:55;93146.81;;;1.10;100.00
11808;BME280;5961;42.640;23.380;2023-01-27T00:04:22;93161.91;;;1.14;100.00
11808;BME280;5961;42.640;23.380;2023-01-27T00:06:49;93143.81;;;1.03;100.00
11808;BME280;5961;42.640;23.380;2023-01-27T00:09:16;93127.00;;;0.96;100.00
11808;BME280;5961;42.640;23.380;2023-01-27T00:11:44;93132.28;;;1.04;100.00
11808;BME280;5961;42.640;23.380;2023-01-27T00:14:29;93137.06;;;1.02;100.00
11808;BME280;5961;42.640;23.380;2023-01-27T00:16:55;93140.84;;;0.96;100.00
11808;BME280;5961;42.640;23.380;2023-01-27T00:19:22;93140.59;;;1.06;100.00
11808;BME280;5961;42.640;23.380;2023-01-27T00:21:51;93130.94;;;1.07;100.00
11808;BME280;5961;42.640;23.380;2023-01-27T00:24:35;93115.03;;;1.03;100.00
11808;BME280;5961;42.640;23.380;2023-01-27T00:27:03;93114.16;;;1.08;100.00
11808;BME280;5961;42.640;23.380;2023-01-27T00:29:33;93113.91;;;0.96;100.00
11808;BME280;5961;42.640;23.380;2023-01-27T00:32:00;93123.66;;;1.04;100.00
11808;BME280;5961;42.640;23.380;2023-01-27T00:34:44;93126.28;;;1.04;100.00
11808;BME280;5961;42.640;23.380;2023-01-27T00:37:10;93124.13;;;1.06;100.00
11808;BME280;5961;42.640;23.380;2023-01-27T00:39:37;93107.13;;;0.95;100.00
11808;BME280;5961;42.640;23.380;2023-01-27T00:42:06;93120.94;;;1.09;100.00
11808;BME280;5961;42.640;23.380;2023-01-27T00:44:32;93119.28;;;1.13;100.00
11808;BME280;5961;42.640;23.380;2023-01-27T00:46:59;93121.81;;;1.04;100.00
11808;BME280;5961;42.640;23.380;2023-01-27T00:49:26;93127.84;;;1.05;100.00
11808;BME280;5961;42.640;23.380;2023-01-27T00:51:52;93131.72;;;0.94;100.00
11808;BME280;5961;42.640;23.380;2023-01-27T00:54:20;93139.34;;;1.04;100.00
11808;BME280;5961;42.640;23.380;2023-01-27T00:56:46;93140.16;;;1.04;100.00
11808;BME280;5961;42.640;23.380;2023-01-27T00:59:14;93120.31;;;0.90;100.00
11808;BME280;5961;42.640;23.380;2023-01-27T01:01:41;93128.44;;;1.02;100.00
11808;BME280;5961;42.640;23.380;2023-01-27T01:04:08;93077.72;;;0.76;100.00
11808;BME280;5961;42.640;23.380;2023-01-27T01:06:35;93117.19;;;1.01;100.00
11808;BME280;5961;42.640;23.380;2023-01-27T01:09:01;93122.22;;;1.12;100.00
11808;BME280;5961;42.640;23.380;2023-01-27T01:11:28;93112.72;;;1.02;100.00
11808;BME280;5961;42.640;23.380;2023-01-27T01:13:55;93121.44;;;1.11;100.00
11808;BME280;5961;42.640;23.380;2023-01-27T01:16:23;93116.97;;;1.12;100.00
11808;BME280;5961;42.640;23.380;2023-01-27T01:18:51;93078.09;;;0.83;100.00
11808;BME280;5961;42.640;23.380;2023-01-27T01:21:17;93118.63;;;0.94;100.00
11808;BME280;5961;42.640;23.380;2023-01-27T01:23:45;93122.53;;;0.96;100.00
11808;BME280;5961;42.640;23.380;2023-01-27T01:26:14;93115.63;;;1.00;100.00
11808;BME280;5961;42.640;23.380;2023-01-27T01:28:42;93103.78;;;1.03;100.00
11808;BME280;5961;42.640;23.380;2023-01-27T01:31:11;93103.91;;;0.98;100.00
11808;BME280;5961;42.640;23.380;2023-01-27T01:33:39;93116.59;;;1.04;100.00
11808;BME280;5961;42.640;23.380;2023-01-27T01:36:08;93125.81;;;1.02;100.00
11808;BME280;5961;42.640;23.380;2023-01-27T01:38:36;93144.13;;;1.02;100.00
11808;BME280;5961;42.640;23.380;2023-01-27T01:41:03;93137.06;;;0.89;100.00
11808;BME280;5961;42.640;23.380;2023-01-27T01:43:30;93133.47;;;0.85;100.00
11808;BME280;5961;42.640;23.380;2023-01-27T01:45:58;93088.00;;;0.59;100.00
11808;BME280;5961;42.640;23.380;2023-01-27T01:48:29;93111.31;;;0.82;100.00
11808;BME280;5961;42.640;23.380;2023-01-27T01:51:01;93115.69;;;0.87;100.00
11808;BME280;5961;42.640;23.380;2023-01-27T01:53:32;93116.22;;;0.97;100.00
11808;BME280;5961;42.640;23.380;2023-01-27T01:56:03;93111.75;;;0.98;100.00
11808;BME280;5961;42.640;23.380;2023-01-27T01:58:32;93119.91;;;0.96;100.00
11808;BME280;5961;42.640;23.380;2023-01-27T02:01:02;93099.19;;;0.86;100.00
11808;BME280;5961;42.640;23.380;2023-01-27T02:03:29;93087.75;;;0.96;100.00
11808;BME280;5961;42.640;23.380;2023-01-27T02:05:58;93088.34;;;0.93;100.00
11808;BME280;5961;42.640;23.380;2023-01-27T02:08:28;93088.81;;;0.95;100.00
11808;BME280;5961;42.640;23.380;2023-01-27T02:10:56;93078.81;;;0.97;100.00
11808;BME280;5961;42.640;23.380;2023-01-27T02:13:23;93069.91;;;0.98;100.00
11808;BME280;5961;42.640;23.380;2023-01-27T02:15:51;93054.34;;;0.93;100.00
11808;BME280;5961;42.640;23.380;2023-01-27T02:18:19;93055.78;;;0.99;100.00
11808;BME280;5961;42.640;23.380;2023-01-27T02:20:48;93049.34;;;1.05;100.00
11808;BME280;5961;42.640;23.380;2023-01-27T02:23:41;93062.97;;;1.16;100.00
11808;BME280;5961;42.640;23.380;2023-01-27T02:26:15;93071.78;;;1.20;100.00
11808;BME280;5961;42.640;23.380;2023-01-27T02:28:43;93058.97;;;1.18;100.00
11808;BME280;5961;42.640;23.380;2023-01-27T02:31:10;93064.56;;;1.25;100.00
11808;BME280;5961;42.640;23.380;2023-01-27T02:33:36;93058.94;;;1.32;100.00
11808;BME280;5961;42.640;23.380;2023-01-27T02:36:07;93008.56;;;1.04;100.00
11808;BME280;5961;42.640;23.380;2023-01-27T02:38:37;93050.00;;;1.33;100.00
11808;BME280;5961;42.640;23.380;2023-01-27T02:41:08;93041.56;;;1.14;100.00
11808;BME280;5961;42.640;23.380;2023-01-27T02:43:38;93053.91;;;1.22;100.00
11808;BME280;5961;42.640;23.380;2023-01-27T02:46:05;93069.59;;;1.35;100.00
11808;BME280;5961;42.640;23.380;2023-01-27T02:48:31;93079.09;;;1.31;100.00
11808;BME280;5961;42.640;23.380;2023-01-27T02:50:58;93059.22;;;1.08;100.00
11808;BME280;5961;42.640;23.380;2023-01-27T02:53:25;93086.28;;;1.26;100.00
11808;BME280;5961;42.640;23.380;2023-01-27T02:55:52;93086.88;;;1.23;100.00
11808;BME280;5961;42.640;23.380;2023-01-27T02:58:19;93070.41;;;1.22;100.00
11808;BME280;5961;42.640;23.380;2023-01-27T03:00:47;93026.50;;;0.97;100.00
11808;BME280;5961;42.640;23.380;2023-01-27T03:03:13;93067.66;;;1.27;100.00
11808;BME280;5961;42.640;23.380;2023-01-27T03:05:40;93060.13;;;1.26;100.00
11808;BME280;5961;42.640;23.380;2023-01-27T03:08:07;93056.25;;;1.23;100.00
11808;BME280;5961;42.640;23.380;2023-01-27T03:10:34;93054.88;;;1.26;100.00
11808;BME280;5961;42.640;23.380;2023-01-27T03:13:01;93057.19;;;1.27;100.00
11808;BME280;5961;42.640;23.380;2023-01-27T03:15:27;93049.78;;;1.21;100.00
11808;BME280;5961;42.640;23.380;2023-01-27T03:18:13;93049.94;;;1.24;100.00
11808;BME280;5961;42.640;23.380;2023-01-27T03:20:43;93042.69;;;1.21;100.00
11808;BME280;5961;42.640;23.380;2023-01-27T03:23:11;92990.91;;;0.87;100.00
11808;BME280;5961;42.640;23.380;2023-01-27T03:25:41;93035.13;;;1.20;100.00
11808;BME280;5961;42.640;23.380;2023-01-27T03:28:08;93030.88;;;1.24;100.00
11808;BME280;5961;42.640;23.380;2023-01-27T03:30:35;93026.38;;;1.24;100.00
11808;BME280;5961;42.640;23.380;2023-01-27T03:33:02;93021.63;;;1.26;100.00
11808;BME280;5961;42.640;23.380;2023-01-27T03:35:31;93012.06;;;1.22;100.00
11808;BME280;5961;42.640;23.380;2023-01-27T03:38:04;92984.97;;;1.18;100.00
11808;BME280;5961;42.640;23.380;2023-01-27T03:40:49;92987.13;;;1.24;100.00
11808;BME280;5961;42.640;23.380;2023-01-27T03:43:33;92993.31;;;1.28;100.00
11808;BME280;5961;42.640;23.380;2023-01-27T03:46:18;92936.47;;;0.89;100.00
11808;BME280;5961;42.640;23.380;2023-01-27T03:48:47;92972.41;;;1.06;100.00
11808;BME280;5961;42.640;23.380;2023-01-27T03:51:18;92982.63;;;1.16;100.00
11808;BME280;5961;42.640;23.380;2023-01-27T03:53:45;93005.44;;;1.24;100.00
11808;BME280;5961;42.640;23.380;2023-01-27T03:56:13;92997.25;;;1.17;100.00
11808;BME280;5961;42.640;23.380;2023-01-27T03:58:40;92980.13;;;1.11;100.00
11808;BME280;5961;42.640;23.380;2023-01-27T04:01:13;92989.41;;;1.17;100.00
11808;BME280;5961;42.640;23.380;2023-01-27T04:03:40;92998.47;;;1.11;100.00
11808;BME280;5961;42.640;23.380;2023-01-27T04:06:27;93006.25;;;1.02;100.00
11808;BME280;5961;42.640;23.380;2023-01-27T04:09:16;93038.03;;;1.18;100.00
11808;BME280;5961;42.640;23.380;2023-01-27T04:11:43;93054.88;;;1.26;100.00
11808;BME280;5961;42.640;23.380;2023-01-27T04:14:26;92961.47;;;0.60;100.00
11808;BME280;5961;42.640;23.380;2023-01-27T04:16:55;93075.81;;;1.26;100.00
11808;BME280;5961;42.640;23.380;2023-01-27T04:19:22;93059.94;;;1.22;100.00
11808;BME280;5961;42.640;23.380;2023-01-27T04:21:52;93062.31;;;1.32;100.00
11808;BME280;5961;42.640;23.380;2023-01-27T04:24:19;93004.34;;;0.94;100.00
11808;BME280;5961;42.640;23.380;2023-01-27T04:26:51;93054.56;;;1.27;100.00
11808;BME280;5961;42.640;23.380;2023-01-27T04:29:19;93080.06;;;1.35;100.00
11808;BME280;5961;42.640;23.380;2023-01-27T04:31:46;93081.69;;;1.31;100.00
11808;BME280;5961;42.640;23.380;2023-01-27T04:34:15;93081.69;;;1.31;100.00
11808;BME280;5961;42.640;23.380;2023-01-27T04:36:42;93084.09;;;1.41;100.00
11808;BME280;5961;42.640;23.380;2023-01-27T04:39:10;93069.59;;;1.35;100.00
11808;BME280;5961;42.640;23.380;2023-01-27T04:41:37;93084.50;;;1.35;100.00
11808;BME280;5961;42.640;23.380;2023-01-27T04:44:04;93090.38;;;1.40;100.00
11808;BME280;5961;42.640;23.380;2023-01-27T04:46:31;93082.41;;;1.45;100.00
11808;BME280;5961;42.640;23.380;2023-01-27T04:48:58;93075.03;;;1.47;100.00
11808;BME280;5961;42.640;23.380;2023-01-27T04:51:25;93078.44;;;1.48;100.00
11808;BME280;5961;42.640;23.380;2023-01-27T04:53:52;93092.78;;;1.50;100.00
11808;BME280;5961;42.640;23.380;2023-01-27T04:56:25;93089.66;;;1.48;100.00
11808;BME280;5961;42.640;23.380;2023-01-27T04:58:53;93091.41;;;1.53;100.00
11808;BME280;5961;42.640;23.380;2023-01-27T05:01:20;93055.66;;;1.26;100.00
11808;BME280;5961;42.640;23.380;2023-01-27T05:03:47;93066.47;;;1.33;100.00
11808;BME280;5961;42.640;23.380;2023-01-27T05:06:14;93099.06;;;1.49;100.00
11808;BME280;5961;42.640;23.380;2023-01-27T05:08:41;93099.72;;;1.55;100.00
11808;BME280;5961;42.640;23.380;2023-01-27T05:11:08;93079.63;;;1.42;100.00
11808;BME280;5961;42.640;23.380;2023-01-27T05:13:36;93089.50;;;1.45;100.00
11808;BME280;5961;42.640;23.380;2023-01-27T05:16:07;93080.38;;;1.42;100.00
11808;BME280;5961;42.640;23.380;2023-01-27T05:18:34;93092.34;;;1.35;100.00
11808;BME280;5961;42.640;23.380;2023-01-27T05:21:01;93083.72;;;1.34;100.00
11808;BME280;5961;42.640;23.380;2023-01-27T05:23:28;93084.03;;;1.33;100.00
11808;BME280;5961;42.640;23.380;2023-01-27T05:26:03;93071.53;;;1.30;100.00
11808;BME280;5961;42.640;23.380;2023-01-27T05:28:29;93072.59;;;1.29;100.00
11808;BME280;5961;42.640;23.380;2023-01-27T05:31:04;93058.75;;;1.28;100.00
11808;BME280;5961;42.640;23.380;2023-01-27T05:33:32;93074.44;;;1.28;100.00
11808;BME280;5961;42.640;23.380;2023-01-27T05:36:00;93079.69;;;1.28;100.00
11808;BME280;5961;42.640;23.380;2023-01-27T05:38:27;93066.72;;;1.23;100.00
11808;BME280;5961;42.640;23.380;2023-01-27T05:40:58;93042.53;;;1.18;100.00
11808;BME280;5961;42.640;23.380;2023-01-27T05:43:27;93046.72;;;1.27;100.00
11808;BME280;5961;42.640;23.380;2023-01-27T05:46:02;93051.19;;;1.27;100.00
11808;BME280;5961;42.640;23.380;2023-01-27T05:48:29;93059.81;;;1.27;100.00
11808;BME280;5961;42.640;23.380;2023-01-27T05:50:57;93064.94;;;1.32;100.00
11808;BME280;5961;42.640;23.380;2023-01-27T05:53:25;93073.66;;;1.28;100.00
11808;BME280;5961;42.640;23.380;2023-01-27T05:55:52;93075.63;;;1.22;100.00
11808;BME280;5961;42.640;23.380;2023-01-27T05:58:19;93069.94;;;1.20;100.00
11808;BME280;5961;42.640;23.380;2023-01-27T06:00:46;93085.69;;;1.29;100.00
11808;BME280;5961;42.640;23.380;2023-01-27T06:03:15;93079.69;;;1.28;100.00
11808;BME280;5961;42.640;23.380;2023-01-27T06:05:49;93041.69;;;1.08;100.00
11808;BME280;5961;42.640;23.380;2023-01-27T06:08:16;93042.94;;;1.11;100.00
11808;BME280;5961;42.640;23.380;2023-01-27T06:10:43;93066.13;;;1.26;100.00
11808;BME280;5961;42.640;23.380;2023-01-27T06:13:09;93077.00;;;1.20;100.00
11808;BME280;5961;42.640;23.380;2023-01-27T06:15:39;93072.88;;;1.27;100.00
11808;BME280;5961;42.640;23.380;2023-01-27T06:18:06;93073.47;;;1.24;100.00
11808;BME280;5961;42.640;23.380;2023-01-27T06:20:34;93070.88;;;1.24;100.00
11808;BME280;5961;42.640;23.380;2023-01-27T06:23:01;93083.94;;;1.24;100.00
11808;BME280;5961;42.640;23.380;2023-01-27T06:25:28;93076.09;;;1.24;100.00
11808;BME280;5961;42.640;23.380;2023-01-27T06:27:55;93081.25;;;1.29;100.00
11808;BME280;5961;42.640;23.380;2023-01-27T06:30:21;93070.13;;;1.24;100.00
11808;BME280;5961;42.640;23.380;2023-01-27T06:32:48;93059.56;;;1.15;100.00
11808;BME280;5961;42.640;23.380;2023-01-27T06:35:15;93081.84;;;1.26;100.00
11808;BME280;5961;42.640;23.380;2023-01-27T06:37:43;93036.22;;;0.96;100.00
11808;BME280;5961;42.640;23.380;2023-01-27T06:40:10;93078.25;;;1.22;100.00
11808;BME280;5961;42.640;23.380;2023-01-27T06:42:40;93083.94;;;1.24;100.00
11808;BME280;5961;42.640;23.380;2023-01-27T06:45:08;93089.19;;;1.24;100.00
11808;BME280;5961;42.640;23.380;2023-01-27T06:47:34;93087.06;;;1.26;100.00
11808;BME280;5961;42.640;23.380;2023-01-27T06:50:01;93096.16;;;1.29;100.00
11808;BME280;5961;42.640;23.380;2023-01-27T06:52:28;93089.19;;;1.24;100.00
11808;BME280;5961;42.640;23.380;2023-01-27T06:54:56;93091.13;;;1.32;100.00
11808;BME280;5961;42.640;23.380;2023-01-27T06:57:23;93097.88;;;1.33;100.00
11808;BME280;5961;42.640;23.380;2023-01-27T06:59:50;93106.50;;;1.34;100.00
11808;BME280;5961;42.640;23.380;2023-01-27T07:02:16;93103.28;;;1.37;100.00
11808;BME280;5961;42.640;23.380;2023-01-27T07:04:43;93117.03;;;1.42;100.00
11808;BME280;5961;42.640;23.380;2023-01-27T07:07:10;93113.75;;;1.37;100.00
11808;BME280;5961;42.640;23.380;2023-01-27T07:09:37;93118.91;;;1.42;100.00
11808;BME280;5961;42.640;23.380;2023-01-27T07:12:05;93102.41;;;1.41;100.00
11808;BME280;5961;42.640;23.380;2023-01-27T07:14:32;93116.75;;;1.44;100.00
11808;BME280;5961;42.640;23.380;2023-01-27T07:16:58;93103.94;;;1.42;100.00
11808;BME280;5961;42.640;23.380;2023-01-27T07:19:25;93101.31;;;1.42;100.00
11808;BME280;5961;42.640;23.380;2023-01-27T07:21:52;93088.72;;;1.44;100.00
11808;BME280;5961;42.640;23.380;2023-01-27T07:24:18;93103.06;;;1.47;100.00
11808;BME280;5961;42.640;23.380;2023-01-27T07:26:45;93098.13;;;1.45;100.00
11808;BME280;5961;42.640;23.380;2023-01-27T07:29:14;93109.06;;;1.47;100.00
11808;BME280;5961;42.640;23.380;2023-01-27T07:31:40;93098.59;;;1.47;100.00
11808;BME280;5961;42.640;23.380;2023-01-27T07:34:09;93099.38;;;1.48;100.00
11808;BME280;5961;42.640;23.380;2023-01-27T07:36:35;93101.69;;;1.49;100.00
11808;BME280;5961;42.640;23.380;2023-01-27T07:39:02;93110.50;;;1.53;100.00
11808;BME280;5961;42.640;23.380;2023-01-27T07:41:29;93111.28;;;1.54;100.00
11808;BME280;5961;42.640;23.380;2023-01-27T07:43:56;93110.97;;;1.55;100.00
11808;BME280;5961;42.640;23.380;2023-01-27T07:46:24;93111.19;;;1.45;100.00
11808;BME280;5961;42.640;23.380;2023-01-27T07:48:52;93108.81;;;1.57;100.00
11808;BME280;5961;42.640;23.380;2023-01-27T07:51:19;93118.69;;;1.60;100.00
11808;BME280;5961;42.640;23.380;2023-01-27T07:53:45;93097.41;;;1.53;100.00
11808;BME280;5961;42.640;23.380;2023-01-27T07:56:12;93120.25;;;1.61;100.00
11808;BME280;5961;42.640;23.380;2023-01-27T07:58:40;93101.56;;;1.54;100.00
11808;BME280;5961;42.640;23.380;2023-01-27T08:01:10;93097.06;;;1.46;100.00
11808;BME280;5961;42.640;23.380;2023-01-27T08:03:39;93101.63;;;1.63;100.00
11808;BME280;5961;42.640;23.380;2023-01-27T08:06:06;93109.53;;;1.72;100.00
11808;BME280;5961;42.640;23.380;2023-01-27T08:08:33;93111.06;;;1.73;100.00
11808;BME280;5961;42.640;23.380;2023-01-27T08:11:01;93068.13;;;1.51;100.00
11808;BME280;5961;42.640;23.380;2023-01-27T08:13:30;93090.38;;;1.62;100.00
11808;BME280;5961;42.640;23.380;2023-01-27T08:15:58;93099.53;;;1.74;100.00
11808;BME280;5961;42.640;23.380;2023-01-27T08:18:25;93091.22;;;1.72;100.00
11808;BME280;5961;42.640;23.380;2023-01-27T08:20:58;93059.56;;;1.37;100.00
11808;BME280;5961;42.640;23.380;2023-01-27T08:23:24;93104.41;;;1.66;100.00
11808;BME280;5961;42.640;23.380;2023-01-27T08:25:52;93106.16;;;1.71;100.00
11808;BME280;5961;42.640;23.380;2023-01-27T08:28:20;93107.75;;;1.58;100.00
11808;BME280;5961;42.640;23.380;2023-01-27T08:30:47;93115.63;;;1.58;100.00
11808;BME280;5961;42.640;23.380;2023-01-27T08:33:16;93106.97;;;1.58;100.00
11808;BME280;5961;42.640;23.380;2023-01-27T08:35:43;93109.13;;;1.56;100.00
11808;BME280;5961;42.640;23.380;2023-01-27T08:38:13;93109.41;;;1.54;100.00
11808;BME280;5961;42.640;23.380;2023-01-27T08:40:40;93121.16;;;1.57;100.00
11808;BME280;5961;42.640;23.380;2023-01-27T08:43:08;93123.00;;;1.56;100.00
11808;BME280;5961;42.640;23.380;2023-01-27T08:45:36;93118.53;;;1.57;100.00
11808;BME280;5961;42.640;23.380;2023-01-27T08:48:03;93118.69;;;1.60;100.00
11808;BME280;5961;42.640;23.380;2023-01-27T08:50:31;93141.97;;;1.62;100.00
11808;BME280;5961;42.640;23.380;2023-01-27T08:52:58;93123.34;;;1.63;100.00
11808;BME280;5961;42.640;23.380;2023-01-27T08:55:28;93117.16;;;1.59;100.00
11808;BME280;5961;42.640;23.380;2023-01-27T08:57:55;93112.72;;;1.60;100.00
11808;BME280;5961;42.640;23.380;2023-01-27T09:00:22;93078.84;;;1.41;100.00
11808;BME280;5961;42.640;23.380;2023-01-27T09:02:49;93115.19;;;1.65;100.00
11808;BME280;5961;42.640;23.380;2023-01-27T09:05:16;93120.81;;;1.50;100.00
11808;BME280;5961;42.640;23.380;2023-01-27T09:07:44;93112.13;;;1.63;100.00
11808;BME280;5961;42.640;23.380;2023-01-27T09:10:12;93098.00;;;1.50;100.00
11808;BME280;5961;42.640;23.380;2023-01-27T09:12:40;93113.47;;;1.60;100.00
11808;BME280;5961;42.640;23.380;2023-01-27T09:15:08;93113.31;;;1.57;100.00
11808;BME280;5961;42.640;23.380;2023-01-27T09:17:35;93117.41;;;1.49;100.00
11808;BME280;5961;42.640;23.380;2023-01-27T09:20:02;93117.59;;;1.53;100.00
11808;BME280;5961;42.640;23.380;2023-01-27T09:22:29;93106.94;;;1.49;100.00
11808;BME280;5961;42.640;23.380;2023-01-27T09:24:56;93106.94;;;1.49;100.00
11808;BME280;5961;42.640;23.380;2023-01-27T09:27:23;93099.38;;;1.48;100.00
11808;BME280;5961;42.640;23.380;2023-01-27T09:29:51;93107.41;;;1.51;100.00
11808;BME280;5961;42.640;23.380;2023-01-27T09:32:18;93098.25;;;1.40;100.00
11808;BME280;5961;42.640;23.380;2023-01-27T09:34:44;93100.72;;;1.45;100.00
11808;BME280;5961;42.640;23.380;2023-01-27T09:37:12;93062.91;;;1.29;100.00
11808;BME280;5961;42.640;23.380;2023-01-27T09:39:42;93092.78;;;1.50;100.00
11808;BME280;5961;42.640;23.380;2023-01-27T09:42:25;93076.16;;;1.55;100.00
11808;BME280;5961;42.640;23.380;2023-01-27T09:45:13;93069.41;;;1.54;100.00
11808;BME280;5961;42.640;23.380;2023-01-27T09:47:57;93091.53;;;1.48;100.00
11808;BME280;5961;42.640;23.380;2023-01-27T09:50:37;93078.72;;;1.46;100.00
11808;BME280;5961;42.640;23.380;2023-01-27T09:53:39;93071.94;;;1.45;100.00
11808;BME280;5961;42.640;23.380;2023-01-27T09:56:14;93070.78;;;1.29;100.00
11808;BME280;5961;42.640;23.380;2023-01-27T09:59:01;93059.72;;;1.32;100.00
11808;BME280;5961;42.640;23.380;2023-01-27T10:01:39;93053.03;;;1.26;100.00
11808;BME280;5961;42.640;23.380;2023-01-27T10:04:31;93047.91;;;1.21;100.00
11808;BME280;5961;42.640;23.380;2023-01-27T10:07:15;93032.81;;;1.18;100.00
11808;BME280;5961;42.640;23.380;2023-01-27T10:09:59;93052.03;;;1.36;100.00
11808;BME280;5961;42.640;23.380;2023-01-27T10:12:39;93052.19;;;1.39;100.00
11808;BME280;5961;42.640;23.380;2023-01-27T10:15:17;93033.75;;;1.22;100.00
11808;BME280;5961;42.640;23.380;2023-01-27T10:17:56;93024.50;;;1.16;100.00
11808;BME280;5961;42.640;23.380;2023-01-27T10:20:29;93056.00;;;1.33;100.00
11808;BME280;5961;42.640;23.380;2023-01-27T10:23:12;93057.91;;;1.41;100.00
11808;BME280;5961;42.640;23.380;2023-01-27T10:25:52;93053.88;;;1.35;100.00
11808;BME280;5961;42.640;23.380;2023-01-27T10:28:27;93051.31;;;1.44;100.00
11808;BME280;5961;42.640;23.380;2023-01-27T10:30:59;93030.31;;;1.35;100.00
11808;BME280;5961;42.640;23.380;2023-01-27T10:33:36;93046.50;;;1.37;100.00
11808;BME280;5961;42.640;23.380;2023-01-27T10:36:09;93021.03;;;1.29;100.00
11808;BME280;5961;42.640;23.380;2023-01-27T10:38:45;93049.25;;;1.32;100.00
11808;BME280;5961;42.640;23.380;2023-01-27T10:41:25;93056.19;;;1.37;100.00
11808;BME280;5961;42.640;23.380;2023-01-27T10:44:09;93054.94;;;1.34;100.00
11808;BME280;5961;42.640;23.380;2023-01-27T10:46:49;93052.91;;;1.31;100.00
11808;BME280;5961;42.640;23.380;2023-01-27T10:49:23;92994.78;;;0.90;100.00
11808;BME280;5961;42.640;23.380;2023-01-27T10:51:56;93017.31;;;0.99;100.00
11808;BME280;5961;42.640;23.380;2023-01-27T10:54:29;93012.59;;;1.10;100.00
11808;BME280;5961;42.640;23.380;2023-01-27T10:56:59;93050.91;;;1.28;100.00
11808;BME280;5961;42.640;23.380;2023-01-27T10:59:36;93035.50;;;1.27;100.00
11808;BME280;5961;42.640;23.380;2023-01-27T11:02:12;93049.84;;;1.29;100.00
11808;BME280;5961;42.640;23.380;2023-01-27T11:04:43;93031.00;;;1.27;100.00
11808;BME280;5961;42.640;23.380;2023-01-27T11:07:15;93042.91;;;1.33;100.00
11808;BME280;5961;42.640;23.380;2023-01-27T11:09:48;93016.88;;;1.28;100.00
11808;BME280;5961;42.640;23.380;2023-01-27T11:12:22;93036.16;;;1.32;100.00
11808;BME280;5961;42.640;23.380;2023-01-27T11:14:52;93030.91;;;1.32;100.00
11808;BME280;5961;42.640;23.380;2023-01-27T11:17:26;93024.91;;;1.32;100.00
11808;BME280;5961;42.640;23.380;2023-01-27T11:20:00;92985.78;;;1.04;100.00
11808;BME280;5961;42.640;23.380;2023-01-27T11:22:35;93028.91;;;1.29;100.00
11808;BME280;5961;42.640;23.380;2023-01-27T11:25:06;93018.66;;;1.19;100.00
11808;BME280;5961;42.640;23.380;2023-01-27T11:28:12;93024.34;;;1.21;100.00
11808;BME280;5961;42.640;23.380;2023-01-27T11:30:45;93028.66;;;1.17;100.00
11808;BME280;5961;42.640;23.380;2023-01-27T11:33:20;92993.00;;;0.99;100.00
11808;BME280;5961;42.640;23.380;2023-01-27T11:35:50;93009.75;;;1.20;100.00
11808;BME280;5961;42.640;23.380;2023-01-27T11:38:20;93019.13;;;1.21;100.00
11808;BME280;5961;42.640;23.380;2023-01-27T11:40:49;93031.28;;;1.17;100.00
11808;BME280;5961;42.640;23.380;2023-01-27T11:43:18;93021.34;;;1.05;100.00
11808;BME280;5961;42.640;23.380;2023-01-27T11:45:45;92974.44;;;0.87;100.00
11808;BME280;5961;42.640;23.380;2023-01-27T11:48:15;93017.81;;;1.10;100.00
11808;BME280;5961;42.640;23.380;2023-01-27T11:50:45;92969.22;;;0.87;100.00
11808;BME280;5961;42.640;23.380;2023-01-27T11:53:19;93007.97;;;1.07;100.00
11808;BME280;5961;42.640;23.380;2023-01-27T11:55:49;93014.34;;;1.15;100.00
11808;BME280;5961;42.640;23.380;2023-01-27T11:58:22;93014.03;;;1.16;100.00
11808;BME280;5961;42.640;23.380;2023-01-27T12:00:54;93001.59;;;1.22;100.00
11808;BME280;5961;42.640;23.380;2023-01-27T12:03:26;92988.88;;;1.06;100.00
11808;BME280;5961;42.640;23.380;2023-01-27T12:05:55;93012.91;;;1.08;100.00
11808;BME280;5961;42.640;23.380;2023-01-27T12:08:37;93016.63;;;1.16;100.00
11808;BME280;5961;42.640;23.380;2023-01-27T12:11:19;93013.25;;;1.16;100.00
11808;BME280;5961;42.640;23.380;2023-01-27T12:13:48;93004.16;;;1.13;100.00
11808;BME280;5961;42.640;23.380;2023-01-27T12:16:16;93007.41;;;1.19;100.00
11808;BME280;5961;42.640;23.380;2023-01-27T12:18:50;92991.38;;;1.12;100.00
11808;BME280;5961;42.640;23.380;2023-01-27T12:21:20;92997.72;;;1.19;100.00
11808;BME280;5961;42.640;23.380;2023-01-27T12:23:59;93012.69;;;1.27;100.00
11808;BME280;5961;42.640;23.380;2023-01-27T12:26:33;93011.03;;;1.31;100.00
11808;BME280;5961;42.640;23.380;2023-01-27T12:29:05;93014.25;;;1.28;100.00
11808;BME280;5961;42.640;23.380;2023-01-27T12:31:43;93008.25;;;1.28;100.00
11808;BME280;5961;42.640;23.380;2023-01-27T12:34:19;93007.78;;;1.26;100.00
11808;BME280;5961;42.640;23.380;2023-01-27T12:36:48;93018.28;;;1.34;100.00
11808;BME280;5961;42.640;23.380;2023-01-27T12:39:31;93003.31;;;1.26;100.00
11808;BME280;5961;42.640;23.380;2023-01-27T12:41:58;93022.47;;;1.35;100.00
11808;BME280;5961;42.640;23.380;2023-01-27T12:44:25;93027.53;;;1.32;100.00
11808;BME280;5961;42.640;23.380;2023-01-27T12:47:00;93003.91;;;1.23;100.00
11808;BME280;5961;42.640;23.380;2023-01-27T12:49:32;93003.31;;;1.26;100.00
11808;BME280;5961;42.640;23.380;2023-01-27T12:52:01;93013.78;;;1.26;100.00
11808;BME280;5961;42.640;23.380;2023-01-27T12:54:31;93006.59;;;1.32;100.00
11808;BME280;5961;42.640;23.380;2023-01-27T12:57:02;93002.72;;;1.29;100.00
11808;BME280;5961;42.640;23.380;2023-01-27T12:59:29;93001.63;;;1.30;100.00
11808;BME280;5961;42.640;23.380;2023-01-27T13:01:59;93006.44;;;1.37;100.00
11808;BME280;5961;42.640;23.380;2023-01-27T13:04:27;92958.44;;;1.10;100.00
11808;BME280;5961;42.640;23.380;2023-01-27T13:06:56;92994.13;;;1.37;100.00
11808;BME280;5961;42.640;23.380;2023-01-27T13:09:32;92997.19;;;1.31;100.00
11808;BME280;5961;42.640;23.380;2023-01-27T13:12:04;93008.19;;;1.41;100.00
11808;BME280;5961;42.640;23.380;2023-01-27T13:14:39;93010.66;;;1.46;100.00
11808;BME280;5961;42.640;23.380;2023-01-27T13:17:26;93008.50;;;1.48;100.00